FVCP weather

Charles Prince Airport
Harare, Harare Metropolitan Province, Zimbabwe

Public forecast

Using degrees Celsius for public forecast. Weather courtesy of forecast.io.

Closest aviation weather report (METAR) to Charles Prince Airport

Closest report is Robert Gabriel Mugabe International Airport, 14.5 nm (26.8 km) SE. Retrieved 2019/11/11 18:00 UTC (2 hours ago):

FVRG 111800Z 14003KT 9999 FEW040CB BKN080 23/13 Q1018 NOSIG

Closest aviation forecast (TAF) to Charles Prince Airport

Closest forecast is Robert Gabriel Mugabe International Airport, 14.5 nm (26.8 km) SE. Retrieved 2019/11/11 18:00 UTC (2 hours ago):

TAF FVRG 111600Z 1118/1224 06010KT 9999 FEW040CB BKN080 PROB30 TEMPO 1118/1121 8000 -TSRA FM112200 CAVOK BECMG 1207/1209 9999 SCT040 PROB30 TEMPO 1210/1216 8000 -TSRA FEW040CB BKN080